Flight Track Log - Related Links

Times and Time Zones

All times are in EDT time to prevent confusion due to time zone crossing. See the SQH23 flight status page for this flight to view local times or setup timezone preferences in your user account.

Time Position Orientation Groundspeed Altitude Reporting Facility
EDT Latitude Longitude Course Direction KTS MPH feet Rate Location/Type
Fri 09:23:32 AM 45.5950 -122.5964 241° Southwest 85 98 400  Level Seattle Center
Fri 09:24:51 AM 45.5828 -122.6275 221° Southwest 79 91 1,600 910 Climbing Seattle Center
Fri 09:25:57 AM 45.5625 -122.6531 221° Southwest 87 100 2,600 898 Climbing Seattle Center
Fri 09:26:58 AM 45.5456 -122.6739 209° Southwest 86 99 3,500 893 Climbing Seattle Center
Fri 09:27:58 AM 45.5233 -122.6911 199° South 85 98 4,400 835 Climbing Seattle Center
Fri 09:28:53 AM 45.5036 -122.7008 208° Southwest 89 102 5,100 828 Climbing Seattle Center
Fri 09:29:54 AM 45.4811 -122.7178 208° Southwest 92 106 6,000 843 Climbing Seattle Center
Fri 09:30:54 AM 45.4569 -122.7358 213° Southwest 95 109 6,800 500 Climbing Seattle Center
Fri 09:32:06 AM 45.4267 -122.7636 208° Southwest 114 131 7,100 90 Climbing Seattle Center
Fri 09:33:07 AM 45.3922 -122.7897 207° Southwest 141 162 7,000  Descending Seattle Center
Fri 09:34:08 AM 45.3586 -122.8139 210° Southwest 138 159 7,100  Climbing Seattle Center
Fri 09:35:09 AM 45.3258 -122.8411 207° Southwest 137 158 7,000 -50 Descending Seattle Center
Fri 09:36:09 AM 45.2919 -122.8661 207° Southwest 138 159 7,000  Level Seattle Center
Fri 09:37:10 AM 45.2592 -122.8900 209° Southwest 135 155 7,000  Level Seattle Center
Fri 09:38:11 AM 45.2267 -122.9158 207° Southwest 134 154 7,000  Level Seattle Center
Fri 09:39:12 AM 45.1942 -122.9394 209° Southwest 132 152 7,000 49 Level Seattle Center
Fri 09:40:13 AM 45.1608 -122.9661 207° Southwest 135 155 7,100  Climbing Seattle Center
Fri 09:41:13 AM 45.1214 -122.9947 207° Southwest 134 154 7,000 -50 Descending Seattle Center
Fri 09:42:14 AM 45.0889 -123.0186 208° Southwest 132 152 7,000  Level Seattle Center
Fri 09:43:15 AM 45.0578 -123.0425 209° Southwest 130 150 7,000  Level Seattle Center
Fri 09:44:16 AM 45.0256 -123.0678 208° Southwest 131 151 7,000  Level Seattle Center
Fri 09:45:17 AM 44.9928 -123.0925 207° Southwest 132 152 7,000  Level Seattle Center
Fri 09:46:18 AM 44.9594 -123.1167 208° Southwest 134 154 7,000  Level Seattle Center
Fri 09:47:19 AM 44.9269 -123.1408 208° Southwest 133 153 7,000  Level Seattle Center
Fri 09:48:20 AM 44.8944 -123.1647 209° Southwest 131 151 7,000  Level Seattle Center
Fri 09:49:21 AM 44.8617 -123.1906 207° Southwest 133 153 7,000  Level Seattle Center
Fri 09:50:22 AM 44.8286 -123.2147 208° Southwest 134 154 7,000  Level Seattle Center
Fri 09:51:23 AM 44.7956 -123.2392 208° Southwest 134 154 7,000  Level Seattle Center
Fri 09:52:24 AM 44.7625 -123.2642 207° Southwest 134 154 7,000  Level Seattle Center
Fri 09:53:25 AM 44.7292 -123.2881 208° Southwest 134 154 7,000  Level Seattle Center
Fri 09:54:25 AM 44.6964 -123.3125 209° Southwest 133 153 7,000  Level Seattle Center
Fri 09:55:26 AM 44.6633 -123.3386 209° Southwest 135 155 7,000  Level Seattle Center
Fri 09:56:27 AM 44.6303 -123.3639 207° Southwest 135 155 7,000  Level Seattle Center
Fri 09:57:28 AM 44.5972 -123.3878 208° Southwest 134 154 7,000  Level Seattle Center
Fri 09:58:29 AM 44.5572 -123.4181 207° Southwest 135 155 7,000  Level Seattle Center
Fri 09:59:30 AM 44.5225 -123.4433 207° Southwest 138 159 7,000  Level Seattle Center
Fri 10:00:31 AM 44.4900 -123.4669 209° Southwest 136 157 7,000  Level Seattle Center
Fri 10:01:32 AM 44.4567 -123.4933 207° Southwest 136 157 7,000  Level Seattle Center
Fri 10:02:33 AM 44.4231 -123.5169 208° Southwest 136 157 7,000  Level Seattle Center
Fri 10:03:34 AM 44.3908 -123.5406 207° Southwest 133 153 7,000  Level Seattle Center
Fri 10:04:36 AM 44.3569 -123.5650 208° Southwest 135 155 7,000  Level Seattle Center
Fri 10:05:37 AM 44.3236 -123.5903 208° Southwest 136 157 7,000  Level Seattle Center
Fri 10:06:38 AM 44.2906 -123.6150 207° Southwest 136 157 7,000  Level Seattle Center
Fri 10:07:39 AM 44.2564 -123.6392 209° Southwest 137 158 7,000  Level Seattle Center
Fri 10:08:40 AM 44.2231 -123.6644 207° Southwest 137 158 7,000  Level Seattle Center
Fri 10:09:41 AM 44.1883 -123.6892 208° Southwest 139 160 7,000  Level Seattle Center
Fri 10:10:42 AM 44.1475 -123.7194 208° Southwest 138 159 7,000 49 Level Seattle Center
Fri 10:11:43 AM 44.1133 -123.7444 208° Southwest 139 160 7,100 49 Climbing Seattle Center
Fri 10:12:44 AM 44.0803 -123.7686 208° Southwest 136 157 7,100  Level Seattle Center
Fri 10:13:45 AM 44.0464 -123.7936 208° Southwest 137 158 7,100  Level Seattle Center
Fri 10:14:46 AM 44.0125 -123.8189 207° Southwest 138 159 7,100  Level Seattle Center
Fri 10:15:47 AM 43.9786 -123.8431 207° Southwest 137 158 7,100  Level Seattle Center
Fri 10:16:48 AM 43.9453 -123.8669 208° Southwest 137 158 7,100  Level Seattle Center
Fri 10:17:49 AM 43.9108 -123.8922 207° Southwest 138 159 7,100  Level Seattle Center
Fri 10:18:50 AM 43.8769 -123.9158 208° Southwest 137 158 7,100  Level Seattle Center
Fri 10:19:51 AM 43.8439 -123.9403 207° Southwest 136 157 7,100  Level Seattle Center
Fri 10:20:53 AM 43.8097 -123.9647 208° Southwest 137 158 7,100 -146 Level Seattle Center
Fri 10:21:54 AM 43.7758 -123.9894 205° Southwest 139 160 6,800 -492 Descending Seattle Center
Fri 10:22:55 AM 43.7353 -124.0158 203° Southwest 149 171 6,100 -689 Descending Seattle Center
Fri 10:23:56 AM 43.6858 -124.0442 203° Southwest 158 182 5,400 -492 Descending Seattle Center
Fri 10:24:57 AM 43.6467 -124.0667 200° South 156 180 5,100 -148 Descending Seattle Center
Fri 10:25:58 AM 43.6106 -124.0844 153° Southeast 147 169 5,100 -98 Level Seattle Center
Fri 10:26:59 AM 43.5783 -124.0617 128° Southeast 161 185 4,900 -541 Descending Seattle Center
Fri 10:28:00 AM 43.5492 -124.0108 149° Southeast 176 203 4,000 -393 Descending Seattle Center
Fri 10:29:01 AM 43.5142 -123.9819 158° South 158 182 4,100  Climbing Seattle Center
Fri 10:30:02 AM 43.4783 -123.9619 159° South 144 166 4,000 -49 Descending Seattle Center
Fri 10:31:04 AM 43.4414 -123.9419 216° Southwest 143 165 4,000 -98 Level Seattle Center
Fri 10:32:05 AM 43.4097 -123.9733 272° West 140 161 3,800 -466 Descending Seattle Center
Fri 10:34:56 AM 43.4139 -124.1358 272° West 134 154 2,200 -561 Descending Seattle Center

Login

Don't have an account? Register now (free) for customized features, flight alerts, and more!